Academy, SD

4:12 PM CDT on April 24, 2017 (GMT -0500)
Platte,SD | | Change Station

Elev 1601 ft 43.39 °N, 98.84 °W | Updated 22 seconds ago

Partly Cloudy
Partly Cloudy
54.1 °F
Feels Like 54.1 °F
N
14.0
Wind Variable Wind from West

Today
High -- | Low -- °F
--% Chance of Precip.
Yesterday
High -- | Low -- °F
Precip. -- in
Pressure 29.59 in
Visibility 10.0 miles
Clouds Overcast 2000 ft
Dew Point 42 °F
Humidity 63%
Rainfall 6.09 in
Snow Depth Not available.
6:38 AM 8:30 PM
Waning Crescent, 4% visible
METAR K9V9 242055Z AUTO 27012G16KT 10SM OVC020 11/05 A2959 RMK AO2 T01060052
Pressure 29.59 in
Visibility 10.0 miles
Clouds Overcast 2000 ft
Dew Point 42 °F
Humidity 63%
Rainfall 6.09 in
Snow Depth Not available.
6:38 AM 8:30 PM
Waning Crescent, 4% visible
METAR K9V9 242055Z AUTO 27012G16KT 10SM OVC020 11/05 A2959 RMK AO2 T01060052

Get Severe Weather Alerts

Thanks for signing up!

Be on the lookout for a verification email in your inbox.

You'll start receiving the daily forecast at 8 AM.

×

10-Day Weather Forecast

Almanac

Astronomy

Apr. 24, 2017 Rise Set
Actual Time
Civil Twilight
Nautical Twilight
Astronomical Twilight
Moon
Length of Visible Light
Length of Day
Tomorrow will be .
, % of the Moon is Illuminated

Today's Extremes

State Highs State Lows

Community

WunderPhotos

WunderBlog® & News

Nearby

Air Quality

  Air Quality AQ Index Pollutant
Not available.

Snow Depth

Station Depth Elevation

Earthquake Activity

City Distance Mag. Time & Date
Minimum magnitude displayed is 2.5.

Coastal Water Temperatures

Place Temperature

Stations

Nearby Weather Stations

Station Location Temp. Windchill Dew Point Humidity Wind Precip. Elev Updated Type
                   

Watches & Warnings

There are currently no watches in effect.